Time;durP1;ratioP1;P1;durP2;ratioP2;P2;SDS_P1;SDS_P2;PMS_P1;PMS_P2;Temp;Humidity;BMP_temperature;BMP_pressure;BME280_temperature;BME280_humidity;BME280_pressure;Samples;Min_cycle;Max_cycle;Signal;HPM_P1;HPM_P2
2024/01/15 00:01:49;;;;;;;18.40;9.90;;;;;;;0.79;100.00;96973.73;107912;1285;22236;-51
2024/01/15 00:04:14;;;;;;;17.10;9.90;;;;;;;0.82;100.00;96971.50;107881;1305;22259;-46
2024/01/15 00:06:40;;;;;;;13.90;9.10;;;;;;;0.82;100.00;96959.78;107904;1308;22252;-48
2024/01/15 00:09:06;;;;;;;16.20;9.40;;;;;;;0.78;100.00;96955.83;107911;1289;22264;-49
2024/01/15 00:11:32;;;;;;;16.00;9.40;;;;;;;0.78;100.00;96952.57;107911;1292;22285;-48
2024/01/15 00:13:57;;;;;;;15.50;9.30;;;;;;;0.80;100.00;96943.53;107905;1307;22239;-47
2024/01/15 00:16:22;;;;;;;17.20;10.00;;;;;;;0.79;100.00;96937.54;107928;1295;22249;-46
2024/01/15 00:18:47;;;;;;;14.10;9.40;;;;;;;0.80;100.00;96935.76;107913;1285;22166;-47
2024/01/15 00:21:13;;;;;;;16.80;10.10;;;;;;;0.79;100.00;96933.40;107898;1308;24086;-47
2024/01/15 00:23:43;;;;;;;15.00;9.60;;;;;;;0.80;100.00;96933.70;107915;1289;22246;-48
2024/01/15 00:26:08;;;;;;;18.60;10.40;;;;;;;0.79;100.00;96925.95;107906;1285;22262;-45
2024/01/15 00:28:33;;;;;;;18.20;9.00;;;;;;;0.76;100.00;96920.26;107920;1308;22276;-48
2024/01/15 00:30:58;;;;;;;12.10;8.20;;;;;;;0.74;100.00;96911.19;107887;1307;22314;-50
2024/01/15 00:33:24;;;;;;;16.00;10.00;;;;;;;0.74;100.00;96904.66;107915;1308;22273;-46
2024/01/15 00:35:49;;;;;;;16.90;10.00;;;;;;;0.75;100.00;96905.13;107884;1288;22324;-45
2024/01/15 00:38:14;;;;;;;16.70;9.60;;;;;;;0.75;100.00;96904.27;107893;1307;23066;-48
2024/01/15 00:40:39;;;;;;;16.00;9.40;;;;;;;0.73;100.00;96901.75;107923;1285;22259;-47
2024/01/15 00:43:07;;;;;;;18.80;9.60;;;;;;;0.73;100.00;96900.05;107921;1288;22172;-47
2024/01/15 00:45:32;;;;;;;16.40;9.90;;;;;;;0.74;100.00;96896.06;107917;1288;22908;-46
2024/01/15 00:47:59;;;;;;;16.70;10.10;;;;;;;0.75;100.00;96890.96;107884;1288;22288;-48
2024/01/15 00:50:24;;;;;;;14.80;10.10;;;;;;;0.75;100.00;96888.94;107884;1289;22242;-47
2024/01/15 00:52:50;;;;;;;19.60;10.40;;;;;;;0.77;100.00;96883.30;107904;1288;22255;-48
2024/01/15 00:55:15;;;;;;;14.30;9.30;;;;;;;0.78;100.00;96877.74;107903;1289;22467;-48
2024/01/15 00:57:40;;;;;;;16.70;9.60;;;;;;;0.80;100.00;96871.92;107937;1288;22240;-46
2024/01/15 01:00:07;;;;;;;15.40;9.70;;;;;;;0.82;100.00;96874.58;107908;1288;22978;-48
2024/01/15 01:02:32;;;;;;;19.10;9.80;;;;;;;0.84;100.00;96877.04;107900;1296;22973;-50
2024/01/15 01:04:58;;;;;;;19.60;9.40;;;;;;;0.83;100.00;96870.70;107911;1285;22384;-46
2024/01/15 01:07:23;;;;;;;16.00;9.40;;;;;;;0.82;100.00;96868.89;107903;1288;22320;-47
2024/01/15 01:09:49;;;;;;;18.50;10.40;;;;;;;0.77;100.00;96863.45;107911;1285;23023;-47
2024/01/15 01:12:14;;;;;;;18.00;10.00;;;;;;;0.79;100.00;96862.84;107936;1308;22373;-47
2024/01/15 01:14:39;;;;;;;20.20;10.40;;;;;;;0.81;100.00;96863.58;107920;1285;22469;-47
2024/01/15 01:17:05;;;;;;;15.50;9.70;;;;;;;0.80;100.00;96861.43;107904;1298;22938;-46
2024/01/15 01:19:30;;;;;;;17.10;10.00;;;;;;;0.77;100.00;96854.84;107915;1288;22409;-46
2024/01/15 01:21:55;;;;;;;16.70;9.70;;;;;;;0.74;100.00;96852.20;107921;1288;22254;-46
2024/01/15 01:24:21;;;;;;;14.90;9.70;;;;;;;0.74;100.00;96842.56;107931;1307;23185;-46
2024/01/15 01:26:46;;;;;;;17.70;10.20;;;;;;;0.74;100.00;96837.56;107901;1308;22396;-45
2024/01/15 01:29:12;;;;;;;17.20;10.00;;;;;;;0.73;100.00;96838.11;107886;1308;22441;-44
2024/01/15 01:31:42;;;;;;;16.60;9.80;;;;;;;0.72;100.00;96834.22;107907;1289;22982;-47
2024/01/15 01:34:07;;;;;;;16.60;8.60;;;;;;;0.75;100.00;96835.09;107908;1308;22464;-45
2024/01/15 01:36:33;;;;;;;19.80;9.20;;;;;;;0.77;100.00;96829.49;107912;1288;22239;-45
2024/01/15 01:38:58;;;;;;;17.10;9.30;;;;;;;0.79;100.00;96823.85;107908;1285;23116;-44
2024/01/15 01:41:24;;;;;;;15.30;9.00;;;;;;;0.79;100.00;96824.55;107893;1288;23161;-45
2024/01/15 01:43:49;;;;;;;16.50;9.10;;;;;;;0.78;100.00;96820.63;107922;1290;22261;-44
2024/01/15 01:46:15;;;;;;;15.90;9.20;;;;;;;0.76;100.00;96819.55;107899;1308;22408;-46
2024/01/15 01:48:40;;;;;;;16.30;9.20;;;;;;;0.77;100.00;96809.67;107913;1289;22306;-48
2024/01/15 01:51:07;;;;;;;16.10;8.40;;;;;;;0.80;100.00;96806.90;107919;1286;22260;-47
2024/01/15 01:53:36;;;;;;;11.70;7.10;;;;;;;0.78;100.00;96803.59;107922;1288;22459;-45
2024/01/15 01:56:02;;;;;;;14.80;8.70;;;;;;;0.72;99.92;96797.85;107955;1297;22402;-46
2024/01/15 01:58:28;;;;;;;15.30;8.80;;;;;;;0.77;99.90;96795.00;107919;1289;22236;-45
2024/01/15 02:00:54;;;;;;;14.60;8.40;;;;;;;0.82;99.89;96793.35;107915;1288;22248;-46
2024/01/15 02:03:20;;;;;;;15.20;8.50;;;;;;;0.81;99.80;96787.52;107920;1307;22628;-47
2024/01/15 02:05:48;;;;;;;13.90;8.20;;;;;;;0.81;99.78;96783.05;107900;1285;22431;-48
2024/01/15 02:08:13;;;;;;;12.20;8.10;;;;;;;0.78;99.88;96784.57;107936;1286;23206;-46
2024/01/15 02:10:39;;;;;;;14.20;8.30;;;;;;;0.72;100.00;96776.46;107912;1289;22248;-46
2024/01/15 02:13:04;;;;;;;15.10;8.80;;;;;;;0.70;100.00;96774.87;107914;1288;22213;-45
2024/01/15 02:15:29;;;;;;;13.20;8.00;;;;;;;0.64;100.00;96775.21;107923;1307;23026;-46
2024/01/15 02:17:59;;;;;;;14.00;8.50;;;;;;;0.65;100.00;96770.64;107928;1308;22325;-49
2024/01/15 02:20:25;;;;;;;13.30;7.70;;;;;;;0.65;100.00;96766.34;107899;1307;22241;-45
2024/01/15 02:22:51;;;;;;;14.70;8.40;;;;;;;0.68;100.00;96758.60;107917;1288;22228;-47
2024/01/15 02:25:16;;;;;;;12.90;8.10;;;;;;;0.69;100.00;96760.73;107888;1307;22407;-47
2024/01/15 02:27:43;;;;;;;13.00;8.10;;;;;;;0.67;100.00;96765.04;107929;1286;22320;-47
2024/01/15 02:30:11;;;;;;;12.60;8.20;;;;;;;0.65;100.00;96762.01;107916;1290;22266;-48
2024/01/15 02:32:36;;;;;;;13.70;9.00;;;;;;;0.63;100.00;96764.54;107924;1292;22302;-48
2024/01/15 02:35:01;;;;;;;13.00;8.60;;;;;;;0.58;100.00;96760.34;107910;1305;22409;-48
2024/01/15 02:37:26;;;;;;;14.50;8.50;;;;;;;0.56;100.00;96758.08;107928;1285;22239;-45
2024/01/15 02:39:52;;;;;;;19.30;9.10;;;;;;;0.52;100.00;96752.56;107890;1308;22903;-49
2024/01/15 02:43:40;;;;;;;13.70;8.70;;;;;;;0.51;100.00;96745.40;106806;1296;544814;-46
2024/01/15 02:46:06;;;;;;;14.10;8.20;;;;;;;0.46;100.00;96735.46;107387;1301;22379;-43
2024/01/15 02:48:32;;;;;;;15.40;8.60;;;;;;;0.49;100.00;96734.15;107402;1292;22245;-46
2024/01/15 02:50:57;;;;;;;15.80;8.60;;;;;;;0.47;100.00;96730.82;107406;1293;22974;-43
2024/01/15 02:53:23;;;;;;;15.50;9.10;;;;;;;0.44;100.00;96728.38;107376;1295;22260;-44
2024/01/15 02:55:48;;;;;;;17.70;8.90;;;;;;;0.44;100.00;96722.67;107389;1292;22714;-45
2024/01/15 02:58:14;;;;;;;12.00;8.50;;;;;;;0.44;100.00;96723.20;107500;1294;147197;-45
2024/01/15 03:00:39;;;;;;;15.70;8.70;;;;;;;0.41;100.00;96715.77;107657;1291;22472;-44
2024/01/15 03:03:05;;;;;;;13.60;8.80;;;;;;;0.39;100.00;96710.91;107678;1310;22399;-44
2024/01/15 03:05:30;;;;;;;14.70;8.90;;;;;;;0.41;100.00;96706.83;107669;1292;22232;-44
2024/01/15 03:07:55;;;;;;;11.20;7.80;;;;;;;0.38;100.00;96707.99;107682;1307;22446;-44
2024/01/15 03:10:20;;;;;;;14.60;8.80;;;;;;;0.41;100.00;96709.23;107664;1291;22981;-44
2024/01/15 03:12:45;;;;;;;15.40;9.10;;;;;;;0.34;100.00;96695.79;107673;1310;22262;-44
2024/01/15 03:15:11;;;;;;;16.10;8.80;;;;;;;0.37;100.00;96695.67;107634;1310;22362;-46
2024/01/15 03:17:36;;;;;;;14.30;8.50;;;;;;;0.42;100.00;96696.27;107697;1289;24512;-46
2024/01/15 03:20:03;;;;;;;13.70;8.20;;;;;;;0.42;100.00;96694.38;107668;1310;23003;-45
2024/01/15 03:22:28;;;;;;;11.50;7.80;;;;;;;0.41;100.00;96694.76;107705;1309;22327;-45
2024/01/15 03:24:53;;;;;;;13.20;7.80;;;;;;;0.41;100.00;96691.84;107701;1292;22278;-43
2024/01/15 03:27:18;;;;;;;14.70;9.00;;;;;;;0.39;100.00;96690.02;107691;1309;22285;-45
2024/01/15 03:29:44;;;;;;;17.60;9.00;;;;;;;0.40;100.00;96693.95;107723;1286;23100;-45
2024/01/15 03:32:09;;;;;;;12.00;7.60;;;;;;;0.41;100.00;96684.05;107696;1291;22532;-48
2024/01/15 14:54:28;;;;;;;9.80;4.50;;;;;;;0.68;89.87;96571.48;106880;1303;544963;-45
2024/01/15 14:56:54;;;;;;;10.30;5.20;;;;;;;0.63;89.66;96572.98;107783;1294;22422;-45
2024/01/15 14:59:19;;;;;;;9.20;3.70;;;;;;;0.63;90.08;96570.95;107703;1302;22318;-44
2024/01/15 15:01:45;;;;;;;10.80;4.60;;;;;;;0.61;90.49;96577.08;107600;1292;22261;-47
